Time,TemperatureF,DewpointF,PressureIn,WindDirection,WindDirectionDegrees,WindSpeedMPH,WindSpeedGustMPH,Humidity,HourlyPrecipIn,Conditions,Clouds,dailyrainin,SoftwareType,DateUTC
2013-09-25 00:00:00,66.2,51.9,29.77,North,356,0.0,0.0,60,0.00,,SKC,-99.99,VWS V12.07,2013-09-24 22:00:00,
2013-09-25 00:10:00,66.0,53.1,29.77,North,356,0.0,0.0,63,0.00,,SKC,-99.99,VWS V12.07,2013-09-24 22:10:00,
2013-09-25 00:20:00,65.8,53.3,29.77,North,356,0.0,0.0,64,0.00,,SKC,-99.99,VWS V12.07,2013-09-24 22:20:00,
2013-09-25 00:30:00,65.7,53.2,29.77,North,356,0.0,0.0,64,0.00,,SKC,-99.99,VWS V12.07,2013-09-24 22:30:00,
2013-09-25 00:40:00,65.7,53.2,29.77,North,356,0.0,0.0,64,0.00,,SKC,-99.99,VWS V12.07,2013-09-24 22:40:00,
2013-09-25 00:50:00,65.7,53.2,29.77,North,356,0.0,0.0,64,0.00,,SKC,-99.99,VWS V12.07,2013-09-24 22:50:00,
2013-09-25 01:00:00,65.7,53.2,29.77,North,356,0.0,0.0,64,0.00,,SKC,-99.99,VWS V12.07,2013-09-24 23:00:00,
2013-09-25 01:10:00,65.8,53.8,29.77,North,356,0.0,0.0,65,0.00,,SKC,-99.99,VWS V12.07,2013-09-24 23:10:00,
2013-09-25 01:20:00,66.0,53.9,29.77,North,356,0.0,0.0,65,0.00,,SKC,-99.99,VWS V12.07,2013-09-24 23:20:00,
2013-09-25 01:30:00,66.0,53.9,29.77,North,356,0.0,0.0,65,0.00,,SKC,-99.99,VWS V12.07,2013-09-24 23:30:00,
2013-09-25 01:40:00,66.0,53.5,29.77,North,356,0.0,0.0,64,0.00,,SKC,-99.99,VWS V12.07,2013-09-24 23:40:00,
2013-09-25 01:50:00,65.7,53.2,29.77,North,356,0.0,0.0,64,0.00,,SKC,-99.99,VWS V12.07,2013-09-24 23:50:00,
2013-09-25 02:00:00,65.1,52.2,29.77,North,356,0.0,0.0,63,0.00,,SKC,-99.99,VWS V12.07,2013-09-25 00:00:00,
2013-09-25 02:10:00,65.1,53.1,29.77,North,356,0.0,0.0,65,0.00,,SKC,-99.99,VWS V12.07,2013-09-25 00:10:00,
2013-09-25 02:20:00,65.3,54.1,29.77,North,356,0.0,0.0,67,0.00,,SKC,-99.99,VWS V12.07,2013-09-25 00:20:00,
2013-09-25 02:30:00,65.5,54.7,29.77,North,356,0.0,0.0,68,0.00,,SKC,-99.99,VWS V12.07,2013-09-25 00:30:00,
2013-09-25 02:38:00,65.7,54.8,29.77,North,356,0.0,0.0,68,0.00,,SKC,-99.99,VWS V12.07,2013-09-25 00:38:00,
2013-09-25 02:45:00,65.8,55.0,29.77,North,356,0.0,0.0,68,0.00,,SKC,-99.99,VWS V12.07,2013-09-25 00:45:00,
2013-09-25 02:50:00,66.0,55.2,29.77,North,356,0.0,0.0,68,0.00,,SKC,-99.99,VWS V12.07,2013-09-25 00:50:00,
2013-09-25 03:00:00,65.8,54.2,29.77,North,356,0.0,0.0,66,0.00,,SKC,-99.99,VWS V12.07,2013-09-25 01:00:00,
2013-09-25 03:10:00,65.8,54.6,29.77,North,356,0.0,0.0,67,0.00,,SKC,-99.99,VWS V12.07,2013-09-25 01:10:00,
2013-09-25 03:20:00,66.0,54.8,29.77,North,356,0.0,0.0,67,0.00,,SKC,-99.99,VWS V12.07,2013-09-25 01:20:00,
2013-09-25 03:30:00,66.4,55.1,29.77,North,356,0.0,0.0,67,0.00,,SKC,-99.99,VWS V12.07,2013-09-25 01:30:00,
2013-09-25 03:40:00,66.4,54.7,29.77,North,356,0.0,0.0,66,0.00,,SCT,-99.99,VWS V12.07,2013-09-25 01:40:00,
2013-09-25 03:50:00,66.4,54.3,29.74,North,356,0.0,0.0,65,0.00,,SCT,-99.99,VWS V12.07,2013-09-25 01:50:00,
2013-09-25 04:00:00,66.0,53.9,29.74,North,356,0.0,0.0,65,0.00,,SCT,-99.99,VWS V12.07,2013-09-25 02:00:00,
2013-09-25 04:10:00,66.0,54.3,29.74,North,356,0.0,0.0,66,0.00,,SCT,-99.99,VWS V12.07,2013-09-25 02:10:00,
2013-09-25 04:20:00,66.2,54.5,29.74,North,356,0.0,0.0,66,0.00,,SCT,-99.99,VWS V12.07,2013-09-25 02:20:00,
2013-09-25 04:30:00,66.2,54.9,29.74,North,356,0.0,0.0,67,0.00,,SCT,-99.99,VWS V12.07,2013-09-25 02:30:00,
2013-09-25 04:40:00,66.6,54.9,29.74,North,356,0.0,0.0,66,0.00,,SCT,-99.99,VWS V12.07,2013-09-25 02:40:00,
2013-09-25 04:50:00,66.0,54.8,29.74,North,356,2.7,2.7,67,0.00,,SCT,-99.99,VWS V12.07,2013-09-25 02:50:00,
2013-09-25 05:00:00,65.7,55.2,29.74,North,356,0.0,0.0,69,0.00,,SCT,-99.99,VWS V12.07,2013-09-25 03:00:00,
2013-09-25 05:10:00,65.3,55.3,29.74,North,356,0.0,0.0,70,0.00,,SCT,-99.99,VWS V12.07,2013-09-25 03:10:00,
2013-09-25 05:20:00,64.9,54.9,29.74,North,356,0.0,0.0,70,0.00,,SCT,-99.99,VWS V12.07,2013-09-25 03:20:00,
2013-09-25 05:30:00,64.9,55.7,29.74,North,356,0.0,0.0,72,0.00,,SCT,-99.99,VWS V12.07,2013-09-25 03:30:00,
2013-09-25 05:40:00,65.1,55.9,29.74,North,356,0.0,0.0,72,0.00,,SCT,-99.99,VWS V12.07,2013-09-25 03:40:00,
2013-09-25 05:51:00,65.3,56.0,29.74,North,356,0.0,0.0,72,0.00,,SCT,-99.99,VWS V12.07,2013-09-25 03:51:00,
2013-09-25 06:00:00,65.3,55.7,29.74,North,356,0.0,0.0,71,0.00,,SCT,-99.99,VWS V12.07,2013-09-25 04:00:00,
2013-09-25 06:05:00,65.3,56.0,29.74,North,356,0.0,0.0,72,0.00,,SCT,-99.99,VWS V12.07,2013-09-25 04:05:00,
2013-09-25 06:11:00,65.3,56.0,29.74,North,356,0.0,0.0,72,0.00,,SCT,-99.99,VWS V12.07,2013-09-25 04:11:00,
2013-09-25 06:16:00,65.5,56.2,29.74,North,356,0.0,0.0,72,0.00,,SCT,-99.99,VWS V12.07,2013-09-25 04:16:00,
2013-09-25 06:21:00,65.7,56.0,29.74,North,356,0.0,0.0,71,0.00,,SCT,-99.99,VWS V12.07,2013-09-25 04:21:00,
2013-09-25 06:26:00,65.8,55.8,29.74,North,356,0.0,0.0,70,0.00,,SCT,-99.99,VWS V12.07,2013-09-25 04:26:00,
2013-09-25 06:31:00,66.0,56.0,29.74,North,356,0.0,0.0,70,0.00,,SCT,-99.99,VWS V12.07,2013-09-25 04:31:00,
2013-09-25 06:36:00,66.0,54.8,29.74,North,356,0.0,0.0,67,0.00,,SCT,-99.99,VWS V12.07,2013-09-25 04:36:00,
2013-09-25 06:41:00,66.4,54.3,29.74,North,356,0.0,0.0,65,0.00,,SCT,-99.99,VWS V12.07,2013-09-25 04:41:00,
2013-09-25 06:46:00,66.6,54.0,29.74,North,356,0.0,0.0,64,0.00,,SCT,-99.99,VWS V12.07,2013-09-25 04:46:00,
2013-09-25 06:51:00,66.7,53.8,29.74,North,356,0.0,0.0,63,0.00,,SCT,-99.99,VWS V12.07,2013-09-25 04:51:00,
2013-09-25 06:56:00,66.4,54.3,29.74,North,356,0.0,0.0,65,0.00,,SCT,-99.99,VWS V12.07,2013-09-25 04:56:00,
2013-09-25 07:01:00,65.8,55.4,29.74,North,356,0.0,0.0,69,0.00,,SCT,-99.99,VWS V12.07,2013-09-25 05:01:00,
2013-09-25 07:10:00,65.1,55.5,29.74,South,185,0.0,0.0,71,0.00,,SCT,-99.99,VWS V12.07,2013-09-25 05:10:00,
2013-09-25 07:15:00,64.9,55.7,29.74,South,184,0.0,0.0,72,0.00,,SCT,-99.99,VWS V12.07,2013-09-25 05:15:00,
2013-09-25 07:20:00,64.9,56.1,29.74,South,184,0.0,0.0,73,0.00,,SCT,-99.99,VWS V12.07,2013-09-25 05:20:00,
2013-09-25 07:25:00,64.9,56.1,29.74,South,184,0.0,0.0,73,0.00,,SCT,-99.99,VWS V12.07,2013-09-25 05:25:00,
2013-09-25 07:30:00,64.9,56.1,29.74,South,184,0.0,0.0,73,0.00,,SCT,-99.99,VWS V12.07,2013-09-25 05:30:00,
2013-09-25 07:35:00,64.9,55.7,29.74,South,184,0.0,0.0,72,0.00,,BKN,-99.99,VWS V12.07,2013-09-25 05:35:00,
2013-09-25 07:40:00,64.8,55.5,29.74,South,184,0.0,0.0,72,0.00,,BKN,-99.99,VWS V12.07,2013-09-25 05:40:00,
2013-09-25 07:45:00,64.8,55.5,29.74,South,184,0.0,0.0,72,0.00,,BKN,-99.99,VWS V12.07,2013-09-25 05:45:00,
2013-09-25 07:50:00,64.9,55.7,29.77,South,184,0.0,0.0,72,0.00,,BKN,-99.99,VWS V12.07,2013-09-25 05:50:00,
2013-09-25 07:55:00,65.3,56.0,29.77,South,184,0.0,0.0,72,0.00,,BKN,-99.99,VWS V12.07,2013-09-25 05:55:00,
2013-09-25 08:00:00,65.7,56.4,29.77,South,185,0.0,0.0,72,0.00,,BKN,-99.99,VWS V12.07,2013-09-25 06:00:00,
2013-09-25 08:05:00,65.8,56.6,29.77,WSW,251,0.0,0.0,72,0.00,,BKN,-99.99,VWS V12.07,2013-09-25 06:05:00,
2013-09-25 08:10:00,65.5,55.8,29.77,WNW,285,0.0,4.0,71,0.00,,BKN,-99.99,VWS V12.07,2013-09-25 06:10:00,
2013-09-25 08:15:00,65.1,55.1,29.77,WNW,285,0.0,0.0,70,0.00,,BKN,-99.99,VWS V12.07,2013-09-25 06:15:00,
2013-09-25 08:20:00,65.3,55.7,29.77,WNW,285,0.0,0.0,71,0.00,,BKN,-99.99,VWS V12.07,2013-09-25 06:20:00,
2013-09-25 08:25:00,65.3,55.7,29.77,WSW,250,0.0,3.1,71,0.00,,BKN,-99.99,VWS V12.07,2013-09-25 06:25:00,
2013-09-25 08:30:00,65.1,55.5,29.77,WSW,258,0.0,2.7,71,0.00,,BKN,-99.99,VWS V12.07,2013-09-25 06:30:00,
2013-09-25 08:35:00,65.3,56.0,29.77,WSW,258,0.0,0.0,72,0.00,,BKN,-99.99,VWS V12.07,2013-09-25 06:35:00,
2013-09-25 08:40:00,65.5,56.2,29.77,West,265,0.0,2.7,72,0.00,,BKN,-99.99,VWS V12.07,2013-09-25 06:40:00,
2013-09-25 08:45:00,65.5,56.2,29.77,West,260,0.0,3.1,72,0.00,,BKN,-99.99,VWS V12.07,2013-09-25 06:45:00,
2013-09-25 08:50:00,65.7,56.4,29.77,West,259,0.0,0.0,72,0.00,,BKN,-99.99,VWS V12.07,2013-09-25 06:50:00,
2013-09-25 08:55:00,65.8,56.6,29.77,West,281,2.7,3.6,72,0.00,,BKN,-99.99,VWS V12.07,2013-09-25 06:55:00,
2013-09-25 09:00:00,66.0,56.7,29.77,West,261,0.0,3.6,72,0.00,,BKN,-99.99,VWS V12.07,2013-09-25 07:00:00,
2013-09-25 09:10:00,66.4,57.1,29.77,West,261,0.0,0.0,72,0.00,,BKN,-99.99,VWS V12.07,2013-09-25 07:10:00,
2013-09-25 09:15:00,66.6,57.3,29.77,West,262,0.0,0.0,72,0.00,,BKN,-99.99,VWS V12.07,2013-09-25 07:15:00,
2013-09-25 09:20:00,66.6,57.3,29.77,West,261,0.0,0.0,72,0.00,,BKN,-99.99,VWS V12.07,2013-09-25 07:20:00,
2013-09-25 09:25:00,66.6,57.3,29.77,West,262,0.0,0.0,72,0.00,,BKN,-99.99,VWS V12.07,2013-09-25 07:25:00,
2013-09-25 09:30:00,66.6,57.3,29.77,ESE,122,0.0,0.0,72,0.00,,BKN,-99.99,VWS V12.07,2013-09-25 07:30:00,
2013-09-25 09:35:00,68.2,52.4,29.77,ESE,120,0.0,3.6,57,0.00,,BKN,-99.99,VWS V12.07,2013-09-25 07:35:00,
2013-09-25 09:40:00,68.2,52.4,29.77,SE,146,0.0,4.0,57,0.00,,BKN,-99.99,VWS V12.07,2013-09-25 07:40:00,
2013-09-25 09:45:00,68.2,52.4,29.77,ESE,109,4.5,4.5,57,0.00,,BKN,-99.99,VWS V12.07,2013-09-25 07:45:00,
2013-09-25 09:50:00,68.2,52.4,29.77,SE,136,4.7,5.1,57,0.00,,BKN,-99.99,VWS V12.07,2013-09-25 07:50:00,
2013-09-25 10:00:00,68.2,52.4,29.77,SE,136,3.6,6.0,57,0.00,,BKN,-99.99,VWS V12.07,2013-09-25 08:00:00,
2013-09-25 10:05:00,69.6,51.2,29.77,SE,127,5.6,6.0,52,0.00,,BKN,-99.99,VWS V12.07,2013-09-25 08:05:00,
2013-09-25 10:15:00,70.5,51.0,29.77,SSE,147,5.1,5.6,50,0.00,,BKN,-99.99,VWS V12.07,2013-09-25 08:15:00,
2013-09-25 10:20:00,70.5,51.0,29.77,SSE,151,0.0,3.6,50,0.00,,BKN,-99.99,VWS V12.07,2013-09-25 08:20:00,
2013-09-25 10:26:00,70.0,51.6,29.77,SW,217,3.6,5.1,52,0.00,,BKN,-99.99,VWS V12.07,2013-09-25 08:26:00,
2013-09-25 10:35:00,70.2,51.7,29.77,ESE,119,2.7,3.6,52,0.00,,BKN,-99.99,VWS V12.07,2013-09-25 08:35:00,
2013-09-25 10:40:00,70.5,51.5,29.77,SSE,156,0.0,3.6,51,0.00,,BKN,-99.99,VWS V12.07,2013-09-25 08:40:00,
2013-09-25 10:45:00,70.7,50.6,29.77,SSW,207,4.7,5.1,49,0.00,,BKN,-99.99,VWS V12.07,2013-09-25 08:45:00,
2013-09-25 10:50:00,70.7,50.1,29.77,SSE,162,0.0,2.7,48,0.00,,SCT,-99.99,VWS V12.07,2013-09-25 08:50:00,
2013-09-25 10:56:00,71.1,50.4,29.77,South,169,4.7,5.6,48,0.00,,SCT,-99.99,VWS V12.07,2013-09-25 08:56:00,
2013-09-25 11:05:00,71.1,48.7,29.77,SW,224,0.0,0.0,45,0.00,,SCT,-99.99,VWS V12.07,2013-09-25 09:05:00,
2013-09-25 11:10:00,71.6,49.2,29.77,SW,224,0.0,0.0,45,0.00,,SCT,-99.99,VWS V12.07,2013-09-25 09:10:00,
2013-09-25 11:15:00,72.3,48.6,29.77,South,170,4.5,5.6,43,0.00,,SCT,-99.99,VWS V12.07,2013-09-25 09:15:00,
2013-09-25 11:20:00,72.5,48.8,29.77,SW,218,3.1,3.6,43,0.00,,SCT,-99.99,VWS V12.07,2013-09-25 09:20:00,
2013-09-25 11:25:00,72.3,48.0,29.77,South,191,2.7,5.6,42,0.00,,SCT,-99.99,VWS V12.07,2013-09-25 09:25:00,
2013-09-25 11:35:00,72.0,48.9,29.77,NW,305,6.9,7.4,44,0.00,,SCT,-99.99,VWS V12.07,2013-09-25 09:35:00,
2013-09-25 11:40:00,71.4,49.6,29.77,WNW,291,6.0,6.0,46,0.00,,SCT,-99.99,VWS V12.07,2013-09-25 09:40:00,
2013-09-25 11:45:00,71.2,49.4,29.77,WSW,258,0.0,4.5,46,0.00,,SCT,-99.99,VWS V12.07,2013-09-25 09:45:00,
2013-09-25 11:50:00,71.6,49.2,29.77,WNW,286,4.7,5.6,45,0.00,,SCT,-99.99,VWS V12.07,2013-09-25 09:50:00,
2013-09-25 11:55:00,71.8,48.7,29.77,NW,318,2.7,3.6,44,0.00,,SCT,-99.99,VWS V12.07,2013-09-25 09:55:00,
2013-09-25 12:00:00,72.1,49.0,29.77,NNW,331,2.7,4.7,44,0.00,,SCT,-99.99,VWS V12.07,2013-09-25 10:00:00,
2013-09-25 12:05:00,72.3,48.6,29.77,West,263,4.0,6.9,43,0.00,,SCT,-99.99,VWS V12.07,2013-09-25 10:05:00,
2013-09-25 12:10:00,72.7,48.3,29.77,NNW,335,5.1,6.5,42,0.00,,SCT,-99.99,VWS V12.07,2013-09-25 10:10:00,
2013-09-25 12:15:00,72.9,48.5,29.77,WNW,303,0.0,3.6,42,0.00,,SCT,-99.99,VWS V12.07,2013-09-25 10:15:00,
2013-09-25 12:20:00,74.1,45.5,29.77,WSW,246,2.7,7.4,36,0.00,,SCT,-99.99,VWS V12.07,2013-09-25 10:20:00,
2013-09-25 12:30:00,75.0,44.0,29.77,South,176,4.0,8.9,33,0.00,,SCT,-99.99,VWS V12.07,2013-09-25 10:30:00,
2013-09-25 12:40:00,75.4,44.3,29.77,SW,236,6.0,6.0,33,0.00,,BKN,-99.99,VWS V12.07,2013-09-25 10:40:00,
2013-09-25 12:45:00,75.4,43.5,29.77,West,274,5.6,7.8,32,0.00,,BKN,-99.99,VWS V12.07,2013-09-25 10:45:00,
2013-09-25 12:50:00,75.6,43.7,29.77,SW,227,4.0,6.5,32,0.00,,BKN,-99.99,VWS V12.07,2013-09-25 10:50:00,
2013-09-25 12:55:00,76.3,43.5,29.77,WSW,237,3.1,6.0,31,0.00,,BKN,-99.99,VWS V12.07,2013-09-25 10:55:00,
2013-09-25 13:00:00,76.3,43.5,29.77,SSW,202,4.7,8.3,31,0.00,,BKN,-99.99,VWS V12.07,2013-09-25 11:00:00,
2013-09-25 13:05:00,76.3,42.6,29.77,South,190,5.6,6.9,30,0.00,,BKN,-99.99,VWS V12.07,2013-09-25 11:05:00,
2013-09-25 13:10:00,76.3,42.6,29.77,SW,231,6.0,8.9,30,0.00,,BKN,-99.99,VWS V12.07,2013-09-25 11:10:00,
2013-09-25 13:15:00,76.5,42.8,29.77,SSE,162,0.0,5.6,30,0.00,,BKN,-99.99,VWS V12.07,2013-09-25 11:15:00,
2013-09-25 13:20:00,76.6,43.8,29.77,WSW,258,3.6,9.8,31,0.00,,BKN,-99.99,VWS V12.07,2013-09-25 11:20:00,
2013-09-25 13:25:00,76.1,44.1,29.77,South,175,6.9,7.8,32,0.00,,BKN,-99.99,VWS V12.07,2013-09-25 11:25:00,
2013-09-25 13:31:00,76.1,44.1,29.77,SW,217,8.3,9.8,32,0.00,,BKN,-99.99,VWS V12.07,2013-09-25 11:31:00,
2013-09-25 13:40:00,76.3,44.3,29.77,WSW,239,3.6,8.3,32,0.00,,SCT040,-99.99,VWS V12.07,2013-09-25 11:40:00,
2013-09-25 13:45:00,76.5,45.2,29.77,SW,222,5.1,8.7,33,0.00,,SCT040,-99.99,VWS V12.07,2013-09-25 11:45:00,
2013-09-25 13:50:00,76.3,44.3,29.74,South,180,5.6,6.9,32,0.00,,SCT040,-99.99,VWS V12.07,2013-09-25 11:50:00,
2013-09-25 13:55:00,76.5,44.4,29.74,SW,235,6.5,8.9,32,0.00,,SCT040,-99.99,VWS V12.07,2013-09-25 11:55:00,
2013-09-25 14:00:00,76.6,44.6,29.74,SSW,210,6.0,6.9,32,0.00,,SCT040,-99.99,VWS V12.07,2013-09-25 12:00:00,
2013-09-25 14:05:00,76.6,43.8,29.74,SW,218,5.1,7.8,31,0.00,,SCT040,-99.99,VWS V12.07,2013-09-25 12:05:00,
2013-09-25 14:10:00,76.5,43.6,29.74,WSW,250,4.0,9.8,31,0.00,,SCT040,-99.99,VWS V12.07,2013-09-25 12:10:00,
2013-09-25 14:15:00,77.0,44.1,29.74,SSW,205,7.4,8.9,31,0.00,,SCT040,-99.99,VWS V12.07,2013-09-25 12:15:00,
2013-09-25 14:20:00,77.0,44.1,29.74,WNW,283,5.1,11.6,31,0.00,,SCT040,-99.99,VWS V12.07,2013-09-25 12:20:00,
2013-09-25 14:25:00,76.8,43.9,29.74,WSW,252,6.5,10.3,31,0.00,,SCT040,-99.99,VWS V12.07,2013-09-25 12:25:00,
2013-09-25 14:30:00,76.5,43.6,29.74,SW,223,5.6,13.6,31,0.00,,SCT040,-99.99,VWS V12.07,2013-09-25 12:30:00,
2013-09-25 14:40:00,77.2,44.2,29.74,SW,226,8.3,9.4,31,0.00,,SCT040,-99.99,VWS V12.07,2013-09-25 12:40:00,
2013-09-25 14:45:00,76.5,43.6,29.74,West,260,8.9,8.9,31,0.00,,SCT040,-99.99,VWS V12.07,2013-09-25 12:45:00,
2013-09-25 14:50:00,77.0,44.1,29.74,WSW,243,3.1,7.4,31,0.00,,BKN,-99.99,VWS V12.07,2013-09-25 12:50:00,
2013-09-25 14:55:00,77.2,43.4,29.74,West,277,6.9,10.3,30,0.00,,BKN,-99.99,VWS V12.07,2013-09-25 12:55:00,
2013-09-25 15:00:00,76.8,43.9,29.74,WSW,237,10.3,11.2,31,0.00,,BKN,-99.99,VWS V12.07,2013-09-25 13:00:00,
2013-09-25 15:05:00,76.6,43.8,29.74,WSW,249,6.5,12.5,31,0.00,,BKN,-99.99,VWS V12.07,2013-09-25 13:05:00,
2013-09-25 15:10:00,76.6,43.8,29.74,WSW,247,8.3,11.6,31,0.00,,BKN,-99.99,VWS V12.07,2013-09-25 13:10:00,
2013-09-25 15:15:00,76.8,43.9,29.74,SW,224,8.7,10.3,31,0.00,,BKN,-99.99,VWS V12.07,2013-09-25 13:15:00,
2013-09-25 15:20:00,76.6,43.8,29.74,SW,232,9.4,9.8,31,0.00,,BKN,-99.99,VWS V12.07,2013-09-25 13:20:00,
2013-09-25 15:25:00,76.6,43.8,29.74,SW,216,5.1,8.9,31,0.00,,BKN,-99.99,VWS V12.07,2013-09-25 13:25:00,
2013-09-25 15:31:00,76.6,43.8,29.74,SW,232,7.8,8.3,31,0.00,,BKN,-99.99,VWS V12.07,2013-09-25 13:31:00,
2013-09-25 15:36:00,76.5,43.6,29.74,SW,228,6.5,8.3,31,0.00,,BKN,-99.99,VWS V12.07,2013-09-25 13:36:00,
2013-09-25 15:41:00,76.5,42.8,29.74,WSW,239,9.8,9.8,30,0.00,,BKN,-99.99,VWS V12.07,2013-09-25 13:41:00,
2013-09-25 15:46:00,76.3,42.6,29.74,SW,224,6.0,10.7,30,0.00,,BKN,-99.99,VWS V12.07,2013-09-25 13:46:00,
2013-09-25 15:51:00,76.3,42.6,29.74,SW,220,6.9,9.4,30,0.00,,BKN,-99.99,VWS V12.07,2013-09-25 13:51:00,
2013-09-25 15:56:00,76.5,43.6,29.74,SW,217,6.0,10.3,31,0.00,,BKN,-99.99,VWS V12.07,2013-09-25 13:56:00,
2013-09-25 16:01:00,76.3,43.5,29.74,SSW,201,8.3,9.8,31,0.00,,BKN,-99.99,VWS V12.07,2013-09-25 14:01:00,
2013-09-25 16:06:00,76.1,43.3,29.74,West,260,9.4,9.8,31,0.00,,BKN,-99.99,VWS V12.07,2013-09-25 14:06:00,
2013-09-25 16:11:00,76.1,43.3,29.74,WSW,246,6.5,9.4,31,0.00,,BKN,-99.99,VWS V12.07,2013-09-25 14:11:00,
2013-09-25 16:16:00,75.9,43.1,29.74,SW,225,5.1,7.4,31,0.00,,BKN,-99.99,VWS V12.07,2013-09-25 14:16:00,
2013-09-25 16:25:00,75.6,43.7,29.74,SW,220,6.0,10.7,32,0.00,,BKN,-99.99,VWS V12.07,2013-09-25 14:25:00,
2013-09-25 16:30:00,75.2,43.3,29.74,SSE,167,4.0,9.4,32,0.00,,BKN,-99.99,VWS V12.07,2013-09-25 14:30:00,
2013-09-25 16:35:00,75.6,43.7,29.74,SW,233,3.6,9.4,32,0.00,,SCT,-99.99,VWS V12.07,2013-09-25 14:35:00,
2013-09-25 16:40:00,75.7,43.0,29.74,WSW,256,7.8,7.8,31,0.00,,SCT,-99.99,VWS V12.07,2013-09-25 14:40:00,
2013-09-25 16:45:00,75.4,43.5,29.74,SW,224,7.4,7.4,32,0.00,,SCT,-99.99,VWS V12.07,2013-09-25 14:45:00,
2013-09-25 16:50:00,75.2,43.3,29.74,WSW,247,8.9,8.9,32,0.00,,SCT,-99.99,VWS V12.07,2013-09-25 14:50:00,
2013-09-25 16:55:00,75.0,43.2,29.74,SW,235,6.9,10.7,32,0.00,,SCT,-99.99,VWS V12.07,2013-09-25 14:55:00,
2013-09-25 17:00:00,75.0,44.0,29.74,SW,234,5.1,8.7,33,0.00,,SCT,-99.99,VWS V12.07,2013-09-25 15:00:00,
2013-09-25 17:05:00,74.8,43.8,29.71,WSW,246,7.8,8.9,33,0.00,,SCT,-99.99,VWS V12.07,2013-09-25 15:05:00,
2013-09-25 17:10:00,74.7,44.5,29.71,SW,232,3.6,6.0,34,0.00,,SCT,-99.99,VWS V12.07,2013-09-25 15:10:00,
2013-09-25 17:15:00,74.8,43.8,29.71,WSW,253,4.7,8.9,33,0.00,,SCT,-99.99,VWS V12.07,2013-09-25 15:15:00,
2013-09-25 17:20:00,74.7,43.7,29.74,WSW,241,4.7,6.9,33,0.00,,SCT,-99.99,VWS V12.07,2013-09-25 15:20:00,
2013-09-25 17:25:00,74.3,44.1,29.74,SSW,212,6.0,9.4,34,0.00,,SCT,-99.99,VWS V12.07,2013-09-25 15:25:00,
2013-09-25 17:30:00,74.1,44.0,29.74,SW,214,6.5,6.9,34,0.00,,SCT,-99.99,VWS V12.07,2013-09-25 15:30:00,
2013-09-25 17:35:00,74.1,44.8,29.74,SW,234,9.4,9.4,35,0.00,,SCT,-99.99,VWS V12.07,2013-09-25 15:35:00,
2013-09-25 17:40:00,73.9,45.3,29.74,West,276,6.0,7.4,36,0.00,,SCT,-99.99,VWS V12.07,2013-09-25 15:40:00,
2013-09-25 17:45:00,73.6,45.7,29.74,SW,234,6.0,8.7,37,0.00,,SCT,-99.99,VWS V12.07,2013-09-25 15:45:00,
2013-09-25 17:51:00,73.2,46.1,29.74,SW,233,6.9,8.7,38,0.00,,SCT,-99.99,VWS V12.07,2013-09-25 15:51:00,
2013-09-25 18:00:00,73.2,46.8,29.74,WSW,254,8.9,9.8,39,0.00,,SCT,-99.99,VWS V12.07,2013-09-25 16:00:00,
2013-09-25 18:05:00,72.7,47.7,29.74,SW,225,5.6,8.7,41,0.00,,SCT,-99.99,VWS V12.07,2013-09-25 16:05:00,
2013-09-25 18:15:00,72.3,48.0,29.74,WSW,244,2.7,8.7,42,0.00,,SCT,-99.99,VWS V12.07,2013-09-25 16:15:00,
2013-09-25 18:20:00,72.1,47.8,29.74,West,276,3.6,7.8,42,0.00,,SCT,-99.99,VWS V12.07,2013-09-25 16:20:00,
2013-09-25 18:25:00,72.1,47.8,29.74,West,274,5.1,5.6,42,0.00,,SCT,-99.99,VWS V12.07,2013-09-25 16:25:00,
2013-09-25 18:30:00,72.1,47.8,29.74,SW,235,4.0,6.0,42,0.00,,SCT,-99.99,VWS V12.07,2013-09-25 16:30:00,
2013-09-25 18:35:00,71.8,47.5,29.74,West,268,4.7,5.1,42,0.00,,SCT,-99.99,VWS V12.07,2013-09-25 16:35:00,
2013-09-25 18:40:00,71.8,47.5,29.74,West,262,4.0,5.1,42,0.00,,SCT,-99.99,VWS V12.07,2013-09-25 16:40:00,
2013-09-25 18:45:00,71.4,47.8,29.74,West,274,0.0,2.7,43,0.00,,SCT,-99.99,VWS V12.07,2013-09-25 16:45:00,
2013-09-25 18:50:00,71.2,47.6,29.74,West,281,3.6,3.6,43,0.00,,SCT,-99.99,VWS V12.07,2013-09-25 16:50:00,
2013-09-25 19:00:00,70.7,47.7,29.74,North,356,3.6,3.6,44,0.00,,SCT,-99.99,VWS V12.07,2013-09-25 17:00:00,
2013-09-25 19:05:00,70.5,47.6,29.74,North,357,2.7,2.7,44,0.00,,SCT,-99.99,VWS V12.07,2013-09-25 17:05:00,
2013-09-25 19:10:00,70.3,47.4,29.74,North,356,0.0,4.0,44,0.00,,SCT,-99.99,VWS V12.07,2013-09-25 17:10:00,
2013-09-25 19:15:00,70.3,48.0,29.74,North,357,3.1,5.1,45,0.00,,SCT,-99.99,VWS V12.07,2013-09-25 17:15:00,
2013-09-25 19:20:00,70.3,48.0,29.74,North,356,0.0,4.5,45,0.00,,SCT,-99.99,VWS V12.07,2013-09-25 17:20:00,
2013-09-25 19:25:00,70.2,47.8,29.74,North,357,0.0,0.0,45,0.00,,SCT,-99.99,VWS V12.07,2013-09-25 17:25:00,
2013-09-25 19:30:00,70.2,47.8,29.74,North,357,3.6,4.7,45,0.00,,SCT,-99.99,VWS V12.07,2013-09-25 17:30:00,
2013-09-25 19:35:00,70.0,47.7,29.74,North,356,2.7,4.0,45,0.00,,SKC,-99.99,VWS V12.07,2013-09-25 17:35:00,
2013-09-25 19:40:00,70.0,47.7,29.74,North,356,0.0,4.5,45,0.00,,SKC,-99.99,VWS V12.07,2013-09-25 17:40:00,
2013-09-25 19:45:00,70.0,47.7,29.74,North,356,3.1,3.6,45,0.00,,SKC,-99.99,VWS V12.07,2013-09-25 17:45:00,
2013-09-25 19:50:00,69.8,48.1,29.74,North,356,2.7,3.6,46,0.00,,SKC,-99.99,VWS V12.07,2013-09-25 17:50:00,
2013-09-25 19:55:00,69.8,48.1,29.74,North,356,3.6,4.0,46,0.00,,SKC,-99.99,VWS V12.07,2013-09-25 17:55:00,
2013-09-25 20:00:00,69.6,48.5,29.74,North,356,2.7,2.7,47,0.00,,SKC,-99.99,VWS V12.07,2013-09-25 18:00:00,
2013-09-25 20:10:00,69.6,48.5,29.74,North,356,0.0,0.0,47,0.00,,SKC,-99.99,VWS V12.07,2013-09-25 18:10:00,
2013-09-25 20:15:00,69.6,48.5,29.74,North,356,0.0,0.0,47,0.00,,SKC,-99.99,VWS V12.07,2013-09-25 18:15:00,
2013-09-25 20:20:00,69.4,48.3,29.74,North,356,0.0,0.0,47,0.00,,SKC,-99.99,VWS V12.07,2013-09-25 18:20:00,
2013-09-25 20:25:00,69.4,48.3,29.74,North,356,0.0,0.0,47,0.00,,SKC,-99.99,VWS V12.07,2013-09-25 18:25:00,
2013-09-25 20:30:00,69.3,48.2,29.74,North,356,0.0,0.0,47,0.00,,SKC,-99.99,VWS V12.07,2013-09-25 18:30:00,
2013-09-25 20:40:00,69.1,48.6,29.74,North,356,0.0,0.0,48,0.00,,SKC,-99.99,VWS V12.07,2013-09-25 18:40:00,
2013-09-25 20:45:00,69.1,48.6,29.74,North,356,0.0,0.0,48,0.00,,SKC,-99.99,VWS V12.07,2013-09-25 18:45:00,
2013-09-25 20:50:00,69.1,49.1,29.74,North,356,0.0,0.0,49,0.00,,SKC,-99.99,VWS V12.07,2013-09-25 18:50:00,
2013-09-25 20:55:00,68.9,49.0,29.74,North,356,0.0,0.0,49,0.00,,SKC,-99.99,VWS V12.07,2013-09-25 18:55:00,
2013-09-25 21:00:00,68.9,49.5,29.74,North,356,0.0,0.0,50,0.00,,SKC,-99.99,VWS V12.07,2013-09-25 19:00:00,
2013-09-25 21:05:00,68.9,49.5,29.74,North,356,0.0,0.0,50,0.00,,SKC,-99.99,VWS V12.07,2013-09-25 19:05:00,
2013-09-25 21:10:00,68.9,49.5,29.74,North,356,0.0,0.0,50,0.00,,SKC,-99.99,VWS V12.07,2013-09-25 19:10:00,
2013-09-25 21:15:00,68.7,49.3,29.74,North,356,0.0,0.0,50,0.00,,SKC,-99.99,VWS V12.07,2013-09-25 19:15:00,
2013-09-25 21:20:00,68.7,49.3,29.74,North,356,0.0,0.0,50,0.00,,SKC,-99.99,VWS V12.07,2013-09-25 19:20:00,
2013-09-25 21:25:00,68.5,49.7,29.74,North,356,0.0,0.0,51,0.00,,SKC,-99.99,VWS V12.07,2013-09-25 19:25:00,
2013-09-25 21:30:00,68.5,49.7,29.74,North,356,0.0,0.0,51,0.00,,SKC,-99.99,VWS V12.07,2013-09-25 19:30:00,
2013-09-25 21:35:00,68.5,49.7,29.74,North,356,0.0,0.0,51,0.00,,SKC,-99.99,VWS V12.07,2013-09-25 19:35:00,
2013-09-25 21:40:00,68.5,49.7,29.74,North,356,0.0,0.0,51,0.00,,SKC,-99.99,VWS V12.07,2013-09-25 19:40:00,
2013-09-25 21:45:00,68.5,49.7,29.74,North,356,0.0,0.0,51,0.00,,SKC,-99.99,VWS V12.07,2013-09-25 19:45:00,
2013-09-25 21:50:00,68.4,49.5,29.74,North,356,2.7,2.7,51,0.00,,SKC,-99.99,VWS V12.07,2013-09-25 19:50:00,
2013-09-25 21:55:00,68.4,50.1,29.74,North,356,3.1,3.6,52,0.00,,SKC,-99.99,VWS V12.07,2013-09-25 19:55:00,
2013-09-25 22:00:00,68.2,49.9,29.74,North,356,2.7,2.7,52,0.00,,SKC,-99.99,VWS V12.07,2013-09-25 20:00:00,
2013-09-25 22:10:00,68.4,50.1,29.77,North,356,0.0,0.0,52,0.00,,SKC,-99.99,VWS V12.07,2013-09-25 20:10:00,
2013-09-25 22:15:00,68.4,50.1,29.77,North,356,0.0,0.0,52,0.00,,SKC,-99.99,VWS V12.07,2013-09-25 20:15:00,
2013-09-25 22:20:00,68.4,50.1,29.77,North,356,0.0,0.0,52,0.00,,SKC,-99.99,VWS V12.07,2013-09-25 20:20:00,
2013-09-25 22:25:00,68.2,49.9,29.77,North,356,0.0,0.0,52,0.00,,SKC,-99.99,VWS V12.07,2013-09-25 20:25:00,
2013-09-25 22:30:00,68.2,49.9,29.77,North,356,0.0,2.7,52,0.00,,SKC,-99.99,VWS V12.07,2013-09-25 20:30:00,
2013-09-25 22:35:00,68.2,49.9,29.77,North,356,0.0,0.0,52,0.00,,SKC,-99.99,VWS V12.07,2013-09-25 20:35:00,
2013-09-25 22:40:00,68.0,49.7,29.77,North,356,0.0,0.0,52,0.00,,SKC,-99.99,VWS V12.07,2013-09-25 20:40:00,
2013-09-25 22:45:00,68.2,49.9,29.77,North,356,0.0,0.0,52,0.00,,SKC,-99.99,VWS V12.07,2013-09-25 20:45:00,
2013-09-25 22:50:00,68.2,49.9,29.77,North,356,0.0,0.0,52,0.00,,SKC,-99.99,VWS V12.07,2013-09-25 20:50:00,
2013-09-25 22:55:00,68.2,49.9,29.77,North,356,0.0,0.0,52,0.00,,SKC,-99.99,VWS V12.07,2013-09-25 20:55:00,
2013-09-25 23:00:00,68.4,50.1,29.77,North,356,0.0,0.0,52,0.00,,SKC,-99.99,VWS V12.07,2013-09-25 21:00:00,
2013-09-25 23:05:00,68.2,49.9,29.77,North,356,0.0,0.0,52,0.00,,SKC,-99.99,VWS V12.07,2013-09-25 21:05:00,
2013-09-25 23:10:00,68.0,49.7,29.77,North,356,0.0,0.0,52,0.00,,SKC,-99.99,VWS V12.07,2013-09-25 21:10:00,
2013-09-25 23:15:00,68.0,50.2,29.77,North,356,0.0,3.6,53,0.00,,SKC,-99.99,VWS V12.07,2013-09-25 21:15:00,
2013-09-25 23:20:00,68.0,50.2,29.77,North,356,2.7,3.6,53,0.00,,SKC,-99.99,VWS V12.07,2013-09-25 21:20:00,
2013-09-25 23:25:00,67.8,50.6,29.77,North,356,0.0,3.1,54,0.00,,SKC,-99.99,VWS V12.07,2013-09-25 21:25:00,
2013-09-25 23:30:00,67.6,50.4,29.77,North,356,0.0,3.1,54,0.00,,SKC,-99.99,VWS V12.07,2013-09-25 21:30:00,
2013-09-25 23:35:00,67.5,50.8,29.77,North,356,0.0,0.0,55,0.00,,SKC,-99.99,VWS V12.07,2013-09-25 21:35:00,
2013-09-25 23:40:00,67.5,50.8,29.77,North,356,0.0,0.0,55,0.00,,SKC,-99.99,VWS V12.07,2013-09-25 21:40:00,
2013-09-25 23:45:00,67.5,50.8,29.77,North,356,0.0,0.0,55,0.00,,SKC,-99.99,VWS V12.07,2013-09-25 21:45:00,
2013-09-25 23:50:00,67.5,50.8,29.77,North,356,0.0,0.0,55,0.00,,SKC,-99.99,VWS V12.07,2013-09-25 21:50:00,
2013-09-25 23:55:00,67.3,50.6,29.77,North,356,0.0,0.0,55,0.00,,SKC,-99.99,VWS V12.07,2013-09-25 21:55:00,